createdAt,value
2022-12-29T00:01:59.988Z,100.00
2022-12-29T00:04:26.540Z,100.00
2022-12-29T00:06:54.355Z,100.00
2022-12-29T00:09:21.352Z,100.00
2022-12-29T00:11:47.945Z,100.00
2022-12-29T00:14:33.353Z,100.00
2022-12-29T00:16:59.929Z,100.00
2022-12-29T00:19:45.052Z,100.00
2022-12-29T00:22:32.405Z,100.00
2022-12-29T00:25:02.351Z,100.00
2022-12-29T00:27:48.859Z,100.00
2022-12-29T00:30:39.544Z,100.00
2022-12-29T00:33:29.100Z,100.00
2022-12-29T00:36:01.563Z,100.00
2022-12-29T00:38:50.859Z,100.00
2022-12-29T00:41:36.109Z,100.00
2022-12-29T00:44:10.993Z,100.00
2022-12-29T00:46:39.189Z,100.00
2022-12-29T00:49:26.231Z,100.00
2022-12-29T00:51:53.183Z,100.00
2022-12-29T00:54:19.767Z,100.00
2022-12-29T00:56:51.333Z,100.00
2022-12-29T00:59:19.429Z,100.00
2022-12-29T01:01:47.654Z,100.00
2022-12-29T01:04:15.002Z,100.00
2022-12-29T01:06:42.363Z,100.00
2022-12-29T01:09:35.251Z,100.00
2022-12-29T01:12:01.986Z,100.00
2022-12-29T01:14:29.025Z,100.00
2022-12-29T01:16:56.428Z,100.00
2022-12-29T01:19:23.817Z,100.00
2022-12-29T01:21:50.911Z,100.00
2022-12-29T01:24:20.368Z,100.00
2022-12-29T01:26:47.342Z,100.00
2022-12-29T01:29:14.281Z,100.00
2022-12-29T01:31:40.977Z,100.00
2022-12-29T01:34:09.162Z,100.00
2022-12-29T01:36:35.784Z,100.00
2022-12-29T01:39:02.811Z,100.00
2022-12-29T01:41:30.027Z,100.00
2022-12-29T01:44:00.215Z,100.00
2022-12-29T01:46:29.060Z,100.00
2022-12-29T01:49:01.734Z,100.00
2022-12-29T01:51:31.226Z,100.00
2022-12-29T01:54:01.667Z,100.00
2022-12-29T01:56:28.335Z,100.00
2022-12-29T01:59:06.240Z,100.00
2022-12-29T02:01:33.853Z,100.00
2022-12-29T02:04:02.256Z,100.00
2022-12-29T02:06:34.001Z,100.00
2022-12-29T02:09:01.862Z,100.00
2022-12-29T02:11:30.890Z,100.00
2022-12-29T02:13:59.358Z,100.00
2022-12-29T02:16:33.092Z,100.00
2022-12-29T02:19:12.972Z,100.00
2022-12-29T02:22:06.322Z,100.00
2022-12-29T02:24:35.790Z,100.00
2022-12-29T02:27:26.885Z,100.00
2022-12-29T02:30:08.744Z,100.00
2022-12-29T02:32:38.222Z,100.00
2022-12-29T02:35:07.871Z,100.00
2022-12-29T02:37:49.847Z,100.00
2022-12-29T02:40:29.609Z,100.00
2022-12-29T02:43:11.381Z,100.00
2022-12-29T02:46:06.753Z,100.00
2022-12-29T02:49:02.565Z,100.00
2022-12-29T02:51:38.250Z,100.00
2022-12-29T02:54:23.593Z,100.00
2022-12-29T02:56:50.482Z,100.00
2022-12-29T02:59:18.048Z,96.94
2022-12-29T03:02:26.187Z,92.94
2022-12-29T03:05:17.370Z,92.25
2022-12-29T03:07:56.136Z,93.27
2022-12-29T03:10:47.624Z,100.00
2022-12-29T03:13:51.793Z,100.00
2022-12-29T03:16:38.219Z,100.00
2022-12-29T03:19:11.245Z,100.00
2022-12-29T03:22:05.596Z,100.00
2022-12-29T03:24:47.658Z,100.00
2022-12-29T03:27:19.894Z,100.00
2022-12-29T03:29:54.211Z,100.00
2022-12-29T03:32:29.228Z,100.00
2022-12-29T03:34:58.505Z,100.00
2022-12-29T03:37:31.977Z,100.00
2022-12-29T03:39:59.473Z,100.00
2022-12-29T03:42:31.002Z,100.00
2022-12-29T03:44:58.367Z,100.00
2022-12-29T03:47:26.240Z,100.00
2022-12-29T03:49:53.381Z,100.00
2022-12-29T03:52:20.070Z,100.00
2022-12-29T03:54:47.979Z,100.00
2022-12-29T03:57:14.664Z,100.00
2022-12-29T03:59:55.209Z,100.00
2022-12-29T04:02:22.008Z,100.00
2022-12-29T04:04:48.790Z,100.00
2022-12-29T04:07:15.419Z,100.00
2022-12-29T04:09:42.746Z,100.00
2022-12-29T04:12:13.039Z,100.00
2022-12-29T04:14:39.663Z,100.00
2022-12-29T04:17:07.190Z,100.00
2022-12-29T04:19:33.847Z,100.00
2022-12-29T04:22:01.462Z,100.00
2022-12-29T04:24:28.271Z,100.00
2022-12-29T04:26:54.939Z,100.00
2022-12-29T04:29:30.462Z,100.00
2022-12-29T04:32:15.664Z,100.00
2022-12-29T04:34:47.892Z,100.00
2022-12-29T04:37:14.525Z,99.63
2022-12-29T04:39:41.802Z,98.33
2022-12-29T04:42:09.195Z,100.00
2022-12-29T04:44:39.765Z,100.00
2022-12-29T04:47:32.585Z,100.00
2022-12-29T04:50:17.695Z,100.00
2022-12-29T04:52:52.921Z,100.00
2022-12-29T04:55:19.826Z,100.00
2022-12-29T04:57:46.469Z,100.00
2022-12-29T05:00:17.781Z,100.00
2022-12-29T05:02:46.189Z,100.00
2022-12-29T05:05:13.058Z,100.00
2022-12-29T05:07:42.888Z,100.00
2022-12-29T05:10:10.508Z,97.33
2022-12-29T05:12:39.024Z,93.03
2022-12-29T05:15:07.683Z,88.52
2022-12-29T05:17:34.962Z,90.92
2022-12-29T05:20:01.801Z,96.85
2022-12-29T05:22:28.833Z,99.33
2022-12-29T05:24:56.502Z,96.04
2022-12-29T05:27:23.700Z,95.18
2022-12-29T05:30:19.772Z,93.96
2022-12-29T05:32:46.391Z,92.41
2022-12-29T05:35:12.954Z,93.14
2022-12-29T05:37:39.618Z,94.34
2022-12-29T05:40:07.378Z,96.07
2022-12-29T05:42:35.302Z,98.74
2022-12-29T05:45:33.118Z,100.00
2022-12-29T05:48:26.326Z,100.00
2022-12-29T05:51:11.636Z,94.86
2022-12-29T05:53:47.100Z,85.79
2022-12-29T05:56:13.710Z,81.65
2022-12-29T05:58:41.026Z,82.45
2022-12-29T06:01:07.882Z,81.26
2022-12-29T06:03:34.590Z,79.20
2022-12-29T06:06:01.255Z,85.36
2022-12-29T06:08:28.671Z,88.73
2022-12-29T06:10:55.250Z,86.34
2022-12-29T06:13:22.188Z,85.73
2022-12-29T06:15:50.607Z,83.48
2022-12-29T06:18:20.317Z,80.55
2022-12-29T06:20:47.653Z,75.68
2022-12-29T06:23:16.255Z,81.28
2022-12-29T06:25:43.737Z,92.29
2022-12-29T06:28:11.683Z,95.59
2022-12-29T06:30:39.014Z,96.50
2022-12-29T06:33:05.648Z,98.01
2022-12-29T06:35:32.483Z,100.00
2022-12-29T06:37:59.910Z,100.00
2022-12-29T06:40:26.563Z,100.00
2022-12-29T06:43:09.532Z,100.00
2022-12-29T06:45:44.104Z,100.00
2022-12-29T06:48:10.807Z,100.00
2022-12-29T06:50:37.366Z,100.00
2022-12-29T06:53:04.451Z,100.00
2022-12-29T06:55:31.099Z,100.00
2022-12-29T06:57:58.258Z,100.00
2022-12-29T07:00:26.200Z,100.00
2022-12-29T07:02:53.208Z,100.00
2022-12-29T07:05:19.931Z,100.00
2022-12-29T07:07:46.493Z,100.00
2022-12-29T07:10:13.103Z,100.00
2022-12-29T07:12:39.660Z,100.00
2022-12-29T07:15:06.795Z,100.00
2022-12-29T07:17:33.343Z,100.00
2022-12-29T07:20:00.486Z,98.54
2022-12-29T07:22:27.103Z,96.41
2022-12-29T07:24:53.687Z,96.23
2022-12-29T07:27:20.278Z,97.26
2022-12-29T07:29:46.899Z,90.02
2022-12-29T07:32:13.610Z,79.87
2022-12-29T07:34:40.732Z,78.44
2022-12-29T07:37:07.647Z,79.95
2022-12-29T07:39:34.323Z,76.48
2022-12-29T07:42:04.908Z,75.37
2022-12-29T07:44:38.920Z,71.99
2022-12-29T07:47:16.875Z,75.62
2022-12-29T07:49:43.518Z,83.77
2022-12-29T07:52:10.096Z,88.03
2022-12-29T07:54:36.756Z,82.62
2022-12-29T07:57:03.539Z,74.78
2022-12-29T07:59:30.220Z,75.26
2022-12-29T08:01:56.919Z,72.50
2022-12-29T08:04:23.772Z,69.98
2022-12-29T08:06:50.769Z,68.05
2022-12-29T08:09:22.320Z,63.56
2022-12-29T08:11:49.689Z,59.31
2022-12-29T08:14:16.274Z,57.08
2022-12-29T08:16:42.912Z,58.34
2022-12-29T08:19:12.318Z,60.90
2022-12-29T08:21:39.451Z,61.86
2022-12-29T08:24:06.985Z,59.07
2022-12-29T08:26:33.782Z,56.19
2022-12-29T08:29:00.342Z,54.28
2022-12-29T08:31:26.986Z,54.90
2022-12-29T08:33:53.574Z,57.86
2022-12-29T08:36:20.266Z,60.67
2022-12-29T08:38:46.874Z,61.33
2022-12-29T08:41:13.676Z,56.79
2022-12-29T08:43:40.321Z,54.58
2022-12-29T08:46:07.022Z,52.08
2022-12-29T08:48:33.648Z,51.48
2022-12-29T08:51:00.204Z,50.84
2022-12-29T08:53:26.862Z,52.20
2022-12-29T08:56:03.956Z,62.17
2022-12-29T08:58:35.678Z,71.88
2022-12-29T09:01:02.431Z,76.09
2022-12-29T09:04:04.380Z,81.66
2022-12-29T09:06:17.771Z,74.14
2022-12-29T09:08:44.896Z,66.03
2022-12-29T09:11:17.581Z,62.91
2022-12-29T09:13:44.178Z,56.32
2022-12-29T09:16:11.413Z,54.89
2022-12-29T09:18:38.631Z,52.40
2022-12-29T09:21:06.847Z,52.87
2022-12-29T09:23:34.503Z,52.37
2022-12-29T09:26:01.485Z,54.07
2022-12-29T09:28:29.898Z,55.73
2022-12-29T09:30:57.178Z,54.88
2022-12-29T09:33:23.895Z,52.41
2022-12-29T09:35:58.912Z,54.30
2022-12-29T09:38:27.110Z,53.01
2022-12-29T09:41:02.778Z,52.24
2022-12-29T09:44:14.275Z,51.54
2022-12-29T09:46:50.202Z,51.59
2022-12-29T09:49:42.066Z,50.16
2022-12-29T09:52:16.145Z,48.82
2022-12-29T09:55:03.279Z,49.32
2022-12-29T09:57:43.100Z,46.90
2022-12-29T10:00:29.122Z,46.25
2022-12-29T10:03:07.143Z,46.21
2022-12-29T10:05:57.440Z,45.43
2022-12-29T10:08:40.628Z,45.26
2022-12-29T10:11:22.329Z,44.88
2022-12-29T10:14:15.706Z,44.96
2022-12-29T10:17:01.514Z,44.82
2022-12-29T10:19:49.364Z,45.04
2022-12-29T10:22:31.363Z,44.65
2022-12-29T10:24:58.603Z,44.17
2022-12-29T10:27:25.292Z,43.30
2022-12-29T10:29:56.624Z,43.34
2022-12-29T10:32:49.456Z,43.13
2022-12-29T10:35:24.896Z,42.38
2022-12-29T10:37:51.500Z,42.46
2022-12-29T10:40:24.373Z,42.22
2022-12-29T10:42:55.256Z,41.78
2022-12-29T10:45:25.840Z,40.48
2022-12-29T10:48:05.087Z,41.88
2022-12-29T10:50:31.971Z,40.12
2022-12-29T10:53:03.398Z,38.18
2022-12-29T10:55:34.741Z,38.41
2022-12-29T10:58:05.824Z,37.96
2022-12-29T11:00:34.005Z,37.90
2022-12-29T11:03:10.535Z,36.49
2022-12-29T11:05:57.072Z,36.86
2022-12-29T11:08:28.859Z,35.46
2022-12-29T11:11:00.843Z,34.90
2022-12-29T11:13:34.997Z,36.18
2022-12-29T11:16:05.327Z,36.62
2022-12-29T11:18:38.480Z,35.48
2022-12-29T11:21:08.579Z,36.92
2022-12-29T11:23:41.029Z,36.99
2022-12-29T11:26:16.540Z,37.63
2022-12-29T11:28:46.168Z,38.06
2022-12-29T11:31:17.640Z,37.00
2022-12-29T11:33:44.218Z,35.84
2022-12-29T11:36:37.313Z,36.02
2022-12-29T11:39:10.450Z,34.74
2022-12-29T11:41:40.418Z,33.85
2022-12-29T11:44:07.313Z,33.51
2022-12-29T11:46:37.901Z,32.16
2022-12-29T11:49:05.240Z,31.86
2022-12-29T11:51:35.285Z,31.72
2022-12-29T11:54:05.276Z,30.85
2022-12-29T11:56:42.148Z,30.33
2022-12-29T11:59:37.623Z,30.76
2022-12-29T12:02:19.899Z,31.63
2022-12-29T12:04:46.684Z,31.90
2022-12-29T12:07:36.165Z,32.49
2022-12-29T12:10:08.134Z,32.94
2022-12-29T12:12:39.627Z,32.59
2022-12-29T12:15:07.068Z,32.75
2022-12-29T12:17:54.977Z,31.32
2022-12-29T12:20:27.467Z,30.07
2022-12-29T12:22:59.954Z,30.64
2022-12-29T12:25:43.948Z,30.65
2022-12-29T12:28:30.509Z,31.80
2022-12-29T12:31:05.751Z,32.11
2022-12-29T12:33:39.985Z,32.76
2022-12-29T12:36:29.759Z,34.30
2022-12-29T12:39:02.129Z,35.31
2022-12-29T12:41:34.460Z,36.05
2022-12-29T12:44:13.559Z,36.35
2022-12-29T12:46:55.156Z,37.20
2022-12-29T12:49:59.185Z,38.31
2022-12-29T12:52:43.912Z,39.35
2022-12-29T12:55:37.947Z,39.56
2022-12-29T12:58:39.028Z,40.44
2022-12-29T13:01:19.188Z,41.47
2022-12-29T13:04:16.513Z,41.56
2022-12-29T13:06:55.519Z,42.48
2022-12-29T13:09:25.127Z,42.47
2022-12-29T13:12:19.384Z,43.02
2022-12-29T13:15:14.474Z,43.58
2022-12-29T13:17:50.260Z,44.01
2022-12-29T13:20:46.827Z,45.07
2022-12-29T13:23:36.794Z,45.03
2022-12-29T13:26:22.001Z,45.54
2022-12-29T13:29:05.006Z,46.25
2022-12-29T13:31:44.166Z,47.94
2022-12-29T13:34:13.669Z,49.36
2022-12-29T13:36:50.521Z,50.16
2022-12-29T13:39:22.914Z,49.57
2022-12-29T13:41:55.034Z,49.76
2022-12-29T13:44:33.260Z,49.95
2022-12-29T13:47:16.339Z,49.74
2022-12-29T13:49:44.453Z,48.92
2022-12-29T13:52:57.314Z,49.43
2022-12-29T13:55:30.387Z,49.85
2022-12-29T13:58:08.508Z,49.74
2022-12-29T14:00:47.233Z,50.05
2022-12-29T14:03:40.386Z,50.28
2022-12-29T14:06:26.915Z,51.13
2022-12-29T14:08:57.672Z,51.81
2022-12-29T14:11:32.108Z,52.44
2022-12-29T14:14:00.218Z,52.75
2022-12-29T14:16:35.850Z,50.96
2022-12-29T14:19:15.953Z,51.65
2022-12-29T14:21:51.014Z,51.93
2022-12-29T14:24:35.882Z,53.38
2022-12-29T14:27:22.434Z,52.59
2022-12-29T14:29:50.725Z,52.94
2022-12-29T14:32:26.334Z,51.63
2022-12-29T14:35:01.068Z,53.63
2022-12-29T14:37:35.037Z,53.00
2022-12-29T14:40:27.465Z,54.53
2022-12-29T14:42:56.699Z,54.47
2022-12-29T14:45:30.199Z,53.24
2022-12-29T14:47:57.826Z,53.50
2022-12-29T14:50:44.987Z,52.20
2022-12-29T14:53:47.823Z,52.85
2022-12-29T14:56:18.015Z,54.76
2022-12-29T14:58:50.736Z,55.17
2022-12-29T15:01:46.292Z,54.78
2022-12-29T15:04:19.252Z,53.29
2022-12-29T15:06:48.151Z,54.65
2022-12-29T15:09:18.560Z,55.85
2022-12-29T15:11:50.737Z,55.76
2022-12-29T15:14:29.214Z,54.94
2022-12-29T15:16:55.906Z,56.78
2022-12-29T15:19:24.059Z,58.43
2022-12-29T15:21:51.002Z,58.29
2022-12-29T15:24:17.889Z,58.58
2022-12-29T15:26:47.926Z,57.96
2022-12-29T15:29:40.478Z,59.48
2022-12-29T15:32:16.400Z,59.24
2022-12-29T15:34:47.777Z,60.59
2022-12-29T15:37:29.403Z,63.23
2022-12-29T15:39:56.586Z,64.38
2022-12-29T15:42:34.827Z,66.64
2022-12-29T15:45:11.565Z,67.76
2022-12-29T15:47:40.538Z,65.86
2022-12-29T15:50:16.032Z,68.89
2022-12-29T15:52:42.680Z,67.75
2022-12-29T15:55:21.039Z,67.74
2022-12-29T15:57:47.674Z,71.00
2022-12-29T16:00:33.003Z,70.16
2022-12-29T16:03:03.083Z,68.95
2022-12-29T16:05:39.063Z,72.25
2022-12-29T16:08:30.040Z,74.13
2022-12-29T16:10:57.300Z,75.87
2022-12-29T16:13:35.513Z,76.71
2022-12-29T16:16:19.268Z,77.24
2022-12-29T16:18:50.490Z,77.43
2022-12-29T16:21:30.846Z,78.71
2022-12-29T16:24:03.821Z,79.19
2022-12-29T16:26:30.588Z,79.27
2022-12-29T16:29:00.687Z,80.20
2022-12-29T16:31:50.191Z,80.68
2022-12-29T16:34:31.959Z,80.92
2022-12-29T16:37:01.581Z,80.88
2022-12-29T16:39:40.302Z,80.92
2022-12-29T16:42:50.587Z,80.89
2022-12-29T16:45:24.178Z,80.69
2022-12-29T16:48:06.015Z,82.20
2022-12-29T16:50:34.833Z,82.67
2022-12-29T16:53:02.141Z,83.80
2022-12-29T16:55:28.697Z,83.59
2022-12-29T16:57:57.364Z,83.99
2022-12-29T17:00:27.009Z,83.67
2022-12-29T17:02:58.768Z,83.06
2022-12-29T17:05:25.962Z,83.60
2022-12-29T17:07:53.752Z,83.16
2022-12-29T17:10:20.399Z,83.47
2022-12-29T17:12:49.290Z,84.60
2022-12-29T17:15:22.585Z,84.17
2022-12-29T17:17:51.876Z,83.54
2022-12-29T17:20:20.289Z,86.97
2022-12-29T17:22:47.859Z,87.43
2022-12-29T17:25:20.008Z,88.06
2022-12-29T17:27:48.515Z,88.06
2022-12-29T17:30:18.232Z,87.57
2022-12-29T17:32:51.554Z,87.15
2022-12-29T17:35:20.495Z,85.19
2022-12-29T17:37:48.071Z,84.88
2022-12-29T17:40:20.974Z,84.38
2022-12-29T17:42:54.685Z,79.24
2022-12-29T17:45:26.949Z,76.15
2022-12-29T17:47:54.122Z,75.79
2022-12-29T17:50:25.730Z,73.20
2022-12-29T17:52:57.537Z,73.61
2022-12-29T17:55:32.775Z,72.82
2022-12-29T17:58:16.874Z,74.23
2022-12-29T18:00:43.750Z,75.28
2022-12-29T18:03:23.485Z,75.75
2022-12-29T18:05:50.413Z,75.68
2022-12-29T18:08:17.080Z,74.32
2022-12-29T18:10:44.472Z,74.70
2022-12-29T18:13:24.101Z,71.56
2022-12-29T18:15:51.603Z,70.63
2022-12-29T18:18:20.918Z,70.85
2022-12-29T18:20:49.483Z,68.88
2022-12-29T18:23:22.489Z,69.83
2022-12-29T18:26:05.867Z,70.54
2022-12-29T18:28:32.621Z,69.53
2022-12-29T18:31:01.613Z,69.97
2022-12-29T18:33:28.390Z,70.82
2022-12-29T18:35:57.845Z,70.30
2022-12-29T18:38:24.939Z,69.93
2022-12-29T18:40:54.904Z,69.84
2022-12-29T18:43:22.891Z,71.62
2022-12-29T18:45:49.612Z,72.04
2022-12-29T18:48:18.267Z,72.48
2022-12-29T18:50:45.656Z,73.33
2022-12-29T18:53:20.580Z,74.90
2022-12-29T18:55:47.225Z,74.31
2022-12-29T18:58:13.885Z,72.51
2022-12-29T19:00:40.946Z,72.24
2022-12-29T19:03:07.697Z,71.42
2022-12-29T19:05:38.975Z,70.21
2022-12-29T19:08:07.105Z,70.45
2022-12-29T19:10:34.570Z,70.90
2022-12-29T19:13:01.815Z,71.34
2022-12-29T19:15:31.294Z,71.75
2022-12-29T19:20:48.517Z,74.98
2022-12-29T19:23:17.737Z,75.65
2022-12-29T19:25:45.643Z,76.35
2022-12-29T19:28:32.527Z,77.57
2022-12-29T19:31:02.495Z,78.11
2022-12-29T19:33:29.534Z,78.65
2022-12-29T19:36:01.523Z,78.34
2022-12-29T19:38:28.218Z,77.63
2022-12-29T19:40:54.825Z,80.00
2022-12-29T19:43:21.447Z,80.20
2022-12-29T19:45:48.022Z,82.47
2022-12-29T19:48:17.609Z,85.55
2022-12-29T19:50:45.184Z,91.14
2022-12-29T19:53:12.706Z,93.60
2022-12-29T19:55:46.656Z,93.58
2022-12-29T19:58:13.799Z,95.64
2022-12-29T20:00:42.525Z,98.36
2022-12-29T20:03:09.493Z,99.89
2022-12-29T20:05:36.363Z,100.00
2022-12-29T20:08:03.046Z,100.00
2022-12-29T20:10:29.772Z,100.00
2022-12-29T20:12:56.376Z,100.00
2022-12-29T20:15:22.932Z,100.00
2022-12-29T20:20:36.190Z,100.00
2022-12-29T20:23:02.801Z,100.00
2022-12-29T20:25:46.616Z,100.00
2022-12-29T20:28:15.560Z,100.00
2022-12-29T20:30:42.819Z,100.00
2022-12-29T20:33:09.418Z,100.00
2022-12-29T20:35:36.869Z,100.00
2022-12-29T20:38:04.751Z,100.00
2022-12-29T20:40:31.396Z,100.00
2022-12-29T20:42:58.030Z,100.00
2022-12-29T20:45:24.949Z,100.00
2022-12-29T20:47:51.596Z,100.00
2022-12-29T20:50:18.183Z,100.00
2022-12-29T20:52:47.759Z,100.00
2022-12-29T20:55:14.624Z,100.00
2022-12-29T21:00:30.333Z,100.00
2022-12-29T21:02:58.274Z,100.00
2022-12-29T21:05:26.182Z,100.00
2022-12-29T21:07:54.046Z,100.00
2022-12-29T21:10:21.594Z,100.00
2022-12-29T21:12:48.538Z,100.00
2022-12-29T21:15:15.736Z,100.00
2022-12-29T21:17:43.773Z,100.00
2022-12-29T21:20:19.583Z,100.00
2022-12-29T21:22:48.222Z,100.00
2022-12-29T21:25:14.859Z,100.00
2022-12-29T21:27:44.548Z,100.00
2022-12-29T21:30:12.016Z,100.00
2022-12-29T21:32:39.874Z,100.00
2022-12-29T21:35:07.971Z,100.00
2022-12-29T21:37:35.708Z,100.00
2022-12-29T21:40:02.869Z,100.00
2022-12-29T21:42:30.231Z,100.00
2022-12-29T21:45:20.201Z,100.00
2022-12-29T21:48:06.419Z,100.00
2022-12-29T21:50:33.145Z,100.00
2022-12-29T21:52:59.698Z,100.00
2022-12-29T21:55:26.271Z,100.00
2022-12-29T21:58:11.504Z,100.00
2022-12-29T22:00:56.617Z,100.00
2022-12-29T22:03:41.793Z,100.00
2022-12-29T22:06:30.194Z,100.00
2022-12-29T22:09:15.490Z,100.00
2022-12-29T22:12:00.669Z,100.00
2022-12-29T22:14:27.207Z,100.00
2022-12-29T22:16:53.856Z,100.00
2022-12-29T22:19:20.456Z,100.00
2022-12-29T22:21:47.070Z,100.00
2022-12-29T22:24:13.707Z,100.00
2022-12-29T22:26:40.286Z,100.00
2022-12-29T22:29:06.943Z,100.00
2022-12-29T22:31:33.886Z,100.00
2022-12-29T22:34:02.470Z,100.00
2022-12-29T22:36:29.792Z,100.00
2022-12-29T22:38:56.546Z,100.00
2022-12-29T22:41:23.629Z,100.00
2022-12-29T22:43:50.225Z,100.00
2022-12-29T22:46:16.863Z,100.00
2022-12-29T22:48:43.684Z,100.00
2022-12-29T22:51:10.272Z,100.00
2022-12-29T22:53:36.894Z,100.00
2022-12-29T22:56:09.284Z,100.00
2022-12-29T22:58:40.239Z,100.00
2022-12-29T23:01:06.916Z,100.00
2022-12-29T23:03:33.808Z,100.00
2022-12-29T23:06:02.672Z,100.00
2022-12-29T23:08:32.381Z,100.00
2022-12-29T23:10:59.072Z,100.00
2022-12-29T23:13:25.712Z,100.00
2022-12-29T23:15:52.449Z,100.00
2022-12-29T23:18:19.167Z,100.00
2022-12-29T23:20:48.186Z,100.00
2022-12-29T23:23:35.739Z,100.00
2022-12-29T23:26:02.434Z,100.00
2022-12-29T23:28:29.043Z,100.00
2022-12-29T23:30:55.614Z,100.00
2022-12-29T23:33:22.248Z,100.00
2022-12-29T23:35:48.807Z,100.00
2022-12-29T23:38:15.548Z,100.00
2022-12-29T23:40:42.125Z,100.00
2022-12-29T23:43:08.745Z,100.00
2022-12-29T23:45:36.205Z,100.00
2022-12-29T23:48:02.838Z,100.00
2022-12-29T23:50:29.699Z,100.00
2022-12-29T23:52:56.298Z,100.00
2022-12-29T23:55:22.912Z,100.00
2022-12-29T23:57:49.556Z,100.00
